Decoded Metar for PAKU (KUPARUK in AK, USA) (IATA:UBW) | Meteo·Mobile Aviation Weather
aviador You're here:

PAKU Decoded Metar

KUPARUK in AK, USA
Report Time2018-10-22 14:45:00
UTC Time2018-10-22 15:03:19
Flight Rules lifr LIFR
Wind260° at 09 kt
W.Decomp.*RWY 24: 9.0 kt HW 0.3 kt LCW
W.Rank260° ranks 6
Current wind is below 260° avg. (10.6)
Visibility3219 m
Phenomena:Mist
Clouds:Overcast 003 Hf
Expected CloudBase > 400 ft AGL from Temp-Dew spread
Ceiling300 ft
Temp-6°C (ISA -21)
Dew Point-7°C (93% RH)
AAT-12.0°C
QNH1004 hPa
Density Alt-2,234 ft
Elevation7 ft
Report Wrong Elevation
Raw Report
PAKU 221445Z 26009KT 2SM R24/P6000FT BR OVC003 M06/M07 A2966=

Extra information for PAKU:More info

Metar Taf Metar & Taf Last 4 Metars F.Rules Stats Wind Profile Meteogram Temp Stats Airport Information Weather charts Add Link Nearby VenuesMetar ALERT Operation Metar Decoded Social comments

AIRNAV info for PAKU